createdAt,value
2023-05-10T00:01:05.885Z,9.65
2023-05-10T00:03:33.580Z,9.63
2023-05-10T00:06:01.155Z,9.63
2023-05-10T00:08:28.644Z,9.62
2023-05-10T00:10:56.233Z,9.60
2023-05-10T00:13:24.032Z,9.56
2023-05-10T00:15:51.996Z,9.55
2023-05-10T00:18:20.732Z,9.54
2023-05-10T00:20:49.885Z,9.52
2023-05-10T00:23:17.410Z,9.50
2023-05-10T00:25:44.916Z,9.49
2023-05-10T00:28:12.975Z,9.47
2023-05-10T00:30:43.254Z,9.46
2023-05-10T00:33:12.500Z,9.47
2023-05-10T00:35:40.339Z,9.49
2023-05-10T00:38:08.213Z,9.49
2023-05-10T00:40:38.281Z,9.46
2023-05-10T00:43:05.898Z,9.43
2023-05-10T00:45:34.395Z,9.42
2023-05-10T00:48:03.236Z,9.40
2023-05-10T00:50:32.426Z,9.36
2023-05-10T00:53:01.729Z,9.33
2023-05-10T00:55:29.498Z,9.31
2023-05-10T00:57:57.065Z,9.29
2023-05-10T01:00:26.413Z,9.27
2023-05-10T01:02:57.150Z,9.23
2023-05-10T01:05:25.849Z,9.21
2023-05-10T01:07:53.610Z,9.18
2023-05-10T01:10:21.197Z,9.15
2023-05-10T01:12:49.346Z,9.10
2023-05-10T01:15:19.190Z,9.07
2023-05-10T01:17:48.801Z,9.04
2023-05-10T01:20:17.232Z,9.01
2023-05-10T01:23:05.531Z,8.98
2023-05-10T01:25:35.780Z,8.96
2023-05-10T01:28:21.956Z,8.91
2023-05-10T01:31:20.658Z,8.89
2023-05-10T01:34:13.785Z,8.86
2023-05-10T01:36:48.927Z,8.81
2023-05-10T01:39:16.848Z,8.77
2023-05-10T01:41:53.306Z,8.74
2023-05-10T01:44:40.418Z,8.72
2023-05-10T01:47:15.490Z,8.69
2023-05-10T01:49:54.392Z,8.65
2023-05-10T01:52:32.249Z,8.63
2023-05-10T01:55:09.280Z,8.60
2023-05-10T01:57:40.726Z,8.58
2023-05-10T02:00:09.725Z,8.55
2023-05-10T02:02:45.774Z,8.52
2023-05-10T02:05:16.315Z,8.49
2023-05-10T02:07:44.991Z,8.46
2023-05-10T02:10:14.863Z,8.43
2023-05-10T02:12:46.341Z,8.40
2023-05-10T02:15:19.759Z,8.39
2023-05-10T02:17:48.316Z,8.36
2023-05-10T02:20:19.746Z,8.34
2023-05-10T02:22:51.340Z,8.33
2023-05-10T02:25:22.147Z,8.32
2023-05-10T02:27:50.964Z,8.33
2023-05-10T02:30:20.112Z,8.32
2023-05-10T02:32:49.226Z,8.30
2023-05-10T02:35:17.840Z,8.27
2023-05-10T02:37:46.783Z,8.26
2023-05-10T02:40:17.788Z,8.23
2023-05-10T02:42:51.430Z,8.21
2023-05-10T02:45:23.029Z,8.20
2023-05-10T02:47:50.597Z,8.20
2023-05-10T02:50:19.510Z,8.18
2023-05-10T02:53:01.647Z,8.17
2023-05-10T02:55:33.905Z,8.15
2023-05-10T02:58:03.120Z,8.14
2023-05-10T03:00:30.848Z,8.13
2023-05-10T03:02:59.084Z,8.13
2023-05-10T03:05:26.712Z,8.12
2023-05-10T03:07:55.292Z,8.12
2023-05-10T03:10:29.230Z,8.11
2023-05-10T03:13:24.048Z,8.12
2023-05-10T03:16:08.766Z,8.13
2023-05-10T03:18:57.527Z,8.14
2023-05-10T03:21:29.759Z,8.13
2023-05-10T03:24:07.870Z,8.13
2023-05-10T03:26:36.972Z,8.15
2023-05-10T03:29:07.223Z,8.18
2023-05-10T03:31:35.197Z,8.21
2023-05-10T03:34:02.743Z,8.24
2023-05-10T03:36:30.423Z,8.26
2023-05-10T03:38:57.945Z,8.29
2023-05-10T03:41:26.463Z,8.33
2023-05-10T03:43:54.252Z,8.36
2023-05-10T03:46:21.837Z,8.41
2023-05-10T03:48:49.416Z,8.45
2023-05-10T03:51:16.924Z,8.47
2023-05-10T03:53:44.455Z,8.52
2023-05-10T03:56:11.991Z,8.57
2023-05-10T03:58:39.553Z,8.62
2023-05-10T04:01:07.086Z,8.67
2023-05-10T04:03:37.413Z,8.73
2023-05-10T04:06:06.269Z,8.80
2023-05-10T04:08:33.835Z,8.84
2023-05-10T04:11:09.536Z,8.88
2023-05-10T04:13:37.643Z,8.95
2023-05-10T04:16:05.792Z,9.02
2023-05-10T04:18:33.654Z,9.07
2023-05-10T04:21:01.210Z,9.13
2023-05-10T04:23:29.074Z,9.19
2023-05-10T04:26:03.152Z,9.26
2023-05-10T04:28:30.810Z,9.33
2023-05-10T04:31:06.114Z,9.40
2023-05-10T04:33:35.024Z,9.47
2023-05-10T04:36:03.973Z,9.53
2023-05-10T04:38:32.619Z,9.60
2023-05-10T04:41:08.516Z,9.67
2023-05-10T04:43:38.584Z,9.75
2023-05-10T04:46:08.448Z,9.82
2023-05-10T04:48:36.279Z,9.88
2023-05-10T04:51:04.946Z,9.96
2023-05-10T04:53:33.235Z,10.03
2023-05-10T04:56:01.133Z,10.10
2023-05-10T04:58:28.853Z,10.19
2023-05-10T05:00:56.367Z,10.26
2023-05-10T05:03:24.013Z,10.35
2023-05-10T05:05:51.838Z,10.43
2023-05-10T05:08:19.443Z,10.50
2023-05-10T05:10:46.943Z,10.59
2023-05-10T05:13:14.442Z,10.68
2023-05-10T05:15:41.982Z,10.77
2023-05-10T05:18:09.538Z,10.85
2023-05-10T05:20:37.561Z,10.94
2023-05-10T05:23:05.287Z,11.03
2023-05-10T05:25:35.454Z,11.14
2023-05-10T05:28:14.319Z,11.25
2023-05-10T05:30:51.461Z,11.35
2023-05-10T05:33:20.085Z,11.45
2023-05-10T05:35:51.743Z,11.55
2023-05-10T05:38:19.303Z,11.67
2023-05-10T05:40:52.388Z,11.77
2023-05-10T05:43:19.907Z,11.85
2023-05-10T05:45:47.753Z,11.95
2023-05-10T05:48:15.412Z,12.05
2023-05-10T05:50:44.056Z,12.14
2023-05-10T05:53:11.771Z,12.23
2023-05-10T05:55:39.524Z,12.30
2023-05-10T05:58:09.470Z,12.37
2023-05-10T06:00:39.677Z,12.46
2023-05-10T06:03:10.574Z,12.56
2023-05-10T06:05:38.118Z,12.65
2023-05-10T06:08:05.777Z,12.74
2023-05-10T06:10:35.150Z,12.86
2023-05-10T06:13:11.055Z,12.98
2023-05-10T06:15:42.576Z,13.09
2023-05-10T06:18:24.306Z,13.22
2023-05-10T06:21:05.304Z,13.35
2023-05-10T06:24:00.228Z,13.45
2023-05-10T06:26:36.565Z,13.56
2023-05-10T06:29:04.649Z,13.65
2023-05-10T06:31:32.544Z,13.75
2023-05-10T06:34:00.144Z,13.86
2023-05-10T06:36:28.156Z,13.98
2023-05-10T06:38:56.100Z,14.10
2023-05-10T06:41:24.980Z,14.20
2023-05-10T06:43:52.870Z,14.32
2023-05-10T06:46:20.526Z,14.41
2023-05-10T06:48:48.249Z,14.50
2023-05-10T06:51:15.865Z,14.55
2023-05-10T06:53:43.358Z,14.59
2023-05-10T06:56:11.093Z,14.67
2023-05-10T06:58:39.122Z,14.73
2023-05-10T07:01:06.775Z,14.82
2023-05-10T07:03:34.592Z,14.98
2023-05-10T07:06:05.956Z,15.12
2023-05-10T07:08:39.538Z,15.21
2023-05-10T07:11:11.168Z,15.27
2023-05-10T07:13:40.593Z,15.34
2023-05-10T07:16:08.859Z,15.43
2023-05-10T07:18:37.045Z,15.52
2023-05-10T07:21:05.059Z,15.59
2023-05-10T07:23:32.747Z,15.66
2023-05-10T07:26:00.935Z,15.75
2023-05-10T07:28:28.670Z,15.84
2023-05-10T07:30:56.394Z,15.93
2023-05-10T07:33:24.051Z,16.03
2023-05-10T07:35:51.998Z,16.10
2023-05-10T07:38:19.578Z,16.11
2023-05-10T07:40:47.276Z,16.11
2023-05-10T07:43:14.751Z,16.14
2023-05-10T07:45:42.623Z,16.22
2023-05-10T07:48:10.225Z,16.34
2023-05-10T07:50:37.747Z,16.58
2023-05-10T07:53:05.386Z,16.58
2023-05-10T07:55:33.434Z,16.53
2023-05-10T07:58:09.494Z,16.60
2023-05-10T08:00:52.903Z,16.62
2023-05-10T08:03:29.762Z,16.62
2023-05-10T08:06:06.764Z,16.69
2023-05-10T08:08:54.347Z,16.88
2023-05-10T08:11:26.559Z,17.04
2023-05-10T08:13:59.600Z,17.12
2023-05-10T08:16:28.656Z,17.21
2023-05-10T08:19:04.823Z,17.30
2023-05-10T08:21:47.551Z,17.38
2023-05-10T08:24:17.868Z,17.44
2023-05-10T08:26:55.038Z,17.47
2023-05-10T08:29:50.208Z,17.55
2023-05-10T08:32:28.391Z,17.70
2023-05-10T08:34:59.664Z,17.83
2023-05-10T08:37:43.122Z,17.90
2023-05-10T08:40:16.836Z,18.07
2023-05-10T08:42:52.251Z,18.30
2023-05-10T08:45:24.040Z,18.55
2023-05-10T08:47:54.229Z,18.65
2023-05-10T08:50:23.204Z,18.81
2023-05-10T08:52:57.100Z,18.89
2023-05-10T08:55:25.307Z,19.05
2023-05-10T08:57:53.049Z,19.23
2023-05-10T09:00:21.621Z,19.36
2023-05-10T09:02:53.685Z,19.53
2023-05-10T09:05:21.291Z,19.61
2023-05-10T09:07:48.787Z,19.63
2023-05-10T09:10:17.569Z,19.68
2023-05-10T09:12:46.654Z,19.62
2023-05-10T09:15:18.111Z,19.56
2023-05-10T09:17:47.120Z,19.51
2023-05-10T09:20:14.673Z,19.51
2023-05-10T09:22:42.229Z,19.59
2023-05-10T09:25:17.636Z,19.54
2023-05-10T09:27:47.335Z,19.54
2023-05-10T09:30:35.277Z,19.62
2023-05-10T09:33:03.622Z,19.73
2023-05-10T09:35:32.998Z,19.90
2023-05-10T09:38:05.075Z,20.14
2023-05-10T09:40:33.332Z,20.34
2023-05-10T09:43:07.008Z,20.58
2023-05-10T09:45:38.507Z,20.97
2023-05-10T09:48:07.560Z,21.31
2023-05-10T09:50:37.562Z,21.51
2023-05-10T09:53:05.183Z,21.78
2023-05-10T09:55:48.341Z,21.87
2023-05-10T09:58:16.195Z,21.76
2023-05-10T10:00:46.122Z,21.66
2023-05-10T10:03:19.436Z,21.65
2023-05-10T10:05:48.927Z,21.71
2023-05-10T10:08:17.780Z,21.73
2023-05-10T10:10:46.914Z,21.84
2023-05-10T10:13:15.009Z,22.12
2023-05-10T10:15:45.019Z,22.37
2023-05-10T10:18:18.643Z,22.57
2023-05-10T10:20:46.971Z,22.75
2023-05-10T10:23:17.296Z,22.95
2023-05-10T10:25:53.371Z,23.34
2023-05-10T10:28:33.515Z,23.70
2023-05-10T10:31:16.922Z,23.87
2023-05-10T10:34:12.566Z,23.99
2023-05-10T10:36:48.004Z,24.25
2023-05-10T10:39:22.313Z,24.56
2023-05-10T10:41:56.166Z,24.77
2023-05-10T10:44:29.527Z,24.72
2023-05-10T10:47:03.743Z,24.75
2023-05-10T10:49:43.858Z,25.04
2023-05-10T10:52:34.975Z,25.31
2023-05-10T10:55:30.819Z,25.54
2023-05-10T10:58:01.757Z,25.72
2023-05-10T11:00:46.556Z,25.82
2023-05-10T11:03:18.184Z,26.03
2023-05-10T11:05:48.241Z,26.26
2023-05-10T11:08:18.991Z,26.53
2023-05-10T11:11:10.009Z,26.63
2023-05-10T11:13:44.895Z,26.75
2023-05-10T11:16:27.932Z,26.88
2023-05-10T11:19:12.979Z,26.92
2023-05-10T11:22:13.910Z,26.96
2023-05-10T11:24:59.559Z,27.18
2023-05-10T11:27:27.620Z,27.60
2023-05-10T11:29:55.267Z,27.80
2023-05-10T11:32:23.926Z,27.94
2023-05-10T11:34:55.134Z,28.13
2023-05-10T11:37:23.563Z,28.25
2023-05-10T11:39:51.628Z,28.13
2023-05-10T11:42:21.854Z,28.14
2023-05-10T11:44:50.818Z,28.01
2023-05-10T11:47:18.541Z,27.96
2023-05-10T11:49:47.680Z,27.95
2023-05-10T11:52:15.307Z,27.76
2023-05-10T11:54:59.489Z,27.66
2023-05-10T11:57:29.546Z,28.01
2023-05-10T11:59:58.523Z,28.55
2023-05-10T12:02:26.561Z,29.18
2023-05-10T12:04:57.494Z,29.60
2023-05-10T12:07:27.246Z,29.66
2023-05-10T12:10:21.380Z,29.78
2023-05-10T12:12:53.553Z,30.05
2023-05-10T12:15:24.142Z,30.23
2023-05-10T12:17:52.522Z,30.39
2023-05-10T12:20:25.376Z,30.56
2023-05-10T12:22:55.164Z,30.75
2023-05-10T12:25:25.565Z,30.91
2023-05-10T12:27:56.834Z,30.99
2023-05-10T12:30:34.854Z,30.98
2023-05-10T12:33:11.909Z,30.85
2023-05-10T12:35:57.434Z,30.69
2023-05-10T12:38:35.234Z,30.98
2023-05-10T12:41:08.537Z,31.55
2023-05-10T12:43:36.942Z,32.11
2023-05-10T12:46:12.819Z,32.62
2023-05-10T12:48:42.763Z,32.97
2023-05-10T12:51:27.391Z,33.15
2023-05-10T12:53:58.498Z,33.26
2023-05-10T12:56:28.016Z,33.37
2023-05-10T12:59:18.755Z,33.69
2023-05-10T13:01:46.699Z,34.05
2023-05-10T13:04:20.485Z,34.31
2023-05-10T13:06:51.969Z,34.62
2023-05-10T13:09:30.504Z,34.97
2023-05-10T13:11:58.420Z,35.14
2023-05-10T13:14:26.707Z,35.00
2023-05-10T13:16:54.894Z,34.84
2023-05-10T13:19:22.548Z,35.03
2023-05-10T13:21:50.046Z,35.55
2023-05-10T13:24:18.444Z,35.92
2023-05-10T13:26:47.543Z,36.21
2023-05-10T13:29:19.222Z,36.39
2023-05-10T13:31:47.761Z,36.30
2023-05-10T13:34:17.178Z,36.15
2023-05-10T13:36:50.448Z,35.94
2023-05-10T13:39:21.752Z,35.85
2023-05-10T13:41:49.956Z,35.96
2023-05-10T13:44:17.570Z,35.96
2023-05-10T13:46:45.786Z,35.94
2023-05-10T13:49:14.058Z,36.03
2023-05-10T13:51:43.514Z,36.04
2023-05-10T13:54:13.409Z,36.16
2023-05-10T13:56:43.534Z,36.48
2023-05-10T13:59:11.374Z,36.94
2023-05-10T14:01:39.444Z,37.36
2023-05-10T14:04:11.602Z,37.67
2023-05-10T14:06:39.809Z,37.94
2023-05-10T14:09:07.983Z,38.11
2023-05-10T14:11:36.305Z,38.18
2023-05-10T14:14:04.550Z,37.85
2023-05-10T14:16:32.879Z,37.71
2023-05-10T14:19:00.653Z,37.67
2023-05-10T14:21:30.442Z,37.51
2023-05-10T14:23:58.075Z,37.31
2023-05-10T14:26:25.810Z,37.06
2023-05-10T14:28:53.834Z,37.31
2023-05-10T14:31:21.604Z,37.81
2023-05-10T14:33:49.275Z,37.97
2023-05-10T14:36:17.137Z,37.92
2023-05-10T14:38:44.769Z,38.05
2023-05-10T14:41:15.930Z,38.26
2023-05-10T14:43:44.617Z,38.47
2023-05-10T14:46:14.062Z,38.56
2023-05-10T14:48:41.909Z,38.62
2023-05-10T14:51:09.752Z,38.44
2023-05-10T14:53:38.679Z,38.09
2023-05-10T14:56:07.497Z,38.09
2023-05-10T14:58:35.472Z,38.37
2023-05-10T15:01:03.496Z,38.71
2023-05-10T15:03:32.732Z,39.02
2023-05-10T15:06:01.551Z,39.29
2023-05-10T15:08:29.897Z,39.55
2023-05-10T15:10:58.334Z,39.91
2023-05-10T15:13:26.420Z,40.45
2023-05-10T15:15:54.279Z,40.83
2023-05-10T15:18:25.881Z,41.02
2023-05-10T15:20:53.511Z,41.06
2023-05-10T15:23:21.161Z,41.06
2023-05-10T15:25:50.678Z,41.18
2023-05-10T15:28:18.262Z,41.33
2023-05-10T15:30:45.905Z,41.58
2023-05-10T15:33:13.502Z,41.52
2023-05-10T15:35:41.963Z,41.25
2023-05-10T15:38:10.703Z,41.01
2023-05-10T15:40:38.529Z,40.59
2023-05-10T15:43:09.051Z,40.28
2023-05-10T15:45:37.873Z,40.07
2023-05-10T15:48:06.032Z,39.92
2023-05-10T15:50:35.230Z,39.65
2023-05-10T15:53:03.013Z,39.40
2023-05-10T15:55:31.045Z,39.42
2023-05-10T15:57:58.839Z,39.62
2023-05-10T16:00:26.758Z,39.78
2023-05-10T16:02:54.375Z,39.75
2023-05-10T16:05:22.614Z,39.80
2023-05-10T16:07:50.163Z,39.79
2023-05-10T16:10:17.721Z,39.75
2023-05-10T16:12:45.273Z,39.77
2023-05-10T16:15:12.928Z,39.83
2023-05-10T16:17:41.511Z,39.83
2023-05-10T16:20:09.535Z,39.86
2023-05-10T16:22:38.555Z,39.77
2023-05-10T16:25:06.705Z,39.62
2023-05-10T16:27:34.362Z,39.60
2023-05-10T16:30:02.189Z,39.35
2023-05-10T16:32:29.858Z,39.00
2023-05-10T16:34:58.921Z,38.70
2023-05-10T16:37:28.040Z,38.46
2023-05-10T16:39:55.608Z,38.14
2023-05-10T16:42:25.052Z,37.68
2023-05-10T16:44:53.624Z,37.25
2023-05-10T16:47:21.108Z,36.91
2023-05-10T16:49:49.362Z,36.67
2023-05-10T16:52:17.096Z,36.60
2023-05-10T16:54:45.143Z,36.54
2023-05-10T16:57:12.704Z,36.44
2023-05-10T16:59:40.715Z,36.32
2023-05-10T17:02:08.384Z,36.07
2023-05-10T17:04:36.091Z,35.68
2023-05-10T17:07:04.158Z,35.24
2023-05-10T17:09:31.712Z,34.74
2023-05-10T17:11:59.173Z,33.97
2023-05-10T17:14:26.897Z,32.84
2023-05-10T17:16:55.467Z,31.57
2023-05-10T17:19:25.630Z,30.26
2023-05-10T17:21:53.978Z,29.02
2023-05-10T17:24:21.570Z,27.92
2023-05-10T17:26:49.119Z,27.00
2023-05-10T17:29:20.503Z,26.15
2023-05-10T17:31:48.798Z,25.40
2023-05-10T17:34:24.007Z,24.75
2023-05-10T17:36:51.622Z,24.16
2023-05-10T17:39:19.456Z,23.66
2023-05-10T17:41:47.197Z,23.16
2023-05-10T17:44:14.955Z,22.66
2023-05-10T17:46:42.747Z,22.24
2023-05-10T17:49:10.660Z,21.90
2023-05-10T17:51:41.543Z,21.53
2023-05-10T17:54:09.602Z,21.17
2023-05-10T17:56:37.249Z,20.86
2023-05-10T17:59:05.461Z,20.57
2023-05-10T18:01:33.291Z,20.30
2023-05-10T18:04:04.700Z,20.05
2023-05-10T18:06:40.291Z,19.81
2023-05-10T18:09:08.474Z,19.56
2023-05-10T18:11:36.764Z,19.33
2023-05-10T18:14:04.765Z,19.12
2023-05-10T18:16:32.409Z,18.92
2023-05-10T18:19:00.218Z,18.73
2023-05-10T18:21:39.008Z,18.52
2023-05-10T18:24:07.436Z,18.29
2023-05-10T18:26:35.750Z,18.08
2023-05-10T18:29:03.302Z,17.88
2023-05-10T18:31:30.862Z,17.68
2023-05-10T18:33:58.620Z,17.50
2023-05-10T18:36:26.290Z,17.35
2023-05-10T18:38:54.615Z,17.19
2023-05-10T18:41:22.329Z,17.03
2023-05-10T18:43:50.054Z,16.88
2023-05-10T18:46:17.887Z,16.73
2023-05-10T18:48:46.317Z,16.59
2023-05-10T18:51:13.978Z,16.45
2023-05-10T18:53:41.704Z,16.34
2023-05-10T18:56:09.393Z,16.22
2023-05-10T18:58:37.175Z,16.11
2023-05-10T19:01:05.020Z,15.98
2023-05-10T19:03:32.746Z,15.87
2023-05-10T19:06:00.543Z,15.75
2023-05-10T19:08:28.202Z,15.65
2023-05-10T19:10:55.814Z,15.55
2023-05-10T19:13:24.657Z,15.45
2023-05-10T19:16:12.423Z,15.33
2023-05-10T19:18:40.143Z,15.19
2023-05-10T19:21:10.305Z,15.10
2023-05-10T19:23:42.894Z,15.01
2023-05-10T19:26:11.283Z,14.93
2023-05-10T19:28:39.508Z,14.83
2023-05-10T19:31:08.464Z,14.76
2023-05-10T19:33:38.334Z,14.70
2023-05-10T19:36:07.335Z,14.62
2023-05-10T19:38:35.494Z,14.54
2023-05-10T19:41:04.051Z,14.46
2023-05-10T19:43:36.629Z,14.38
2023-05-10T19:46:04.551Z,14.31
2023-05-10T19:48:32.188Z,14.24
2023-05-10T19:51:02.595Z,14.18
2023-05-10T19:53:31.644Z,14.12
2023-05-10T19:56:04.783Z,14.06
2023-05-10T19:58:35.761Z,13.99
2023-05-10T20:01:05.589Z,13.91
2023-05-10T20:03:36.235Z,13.86
2023-05-10T20:06:04.303Z,13.81
2023-05-10T20:08:31.986Z,13.76
2023-05-10T20:11:02.717Z,13.71
2023-05-10T20:13:30.702Z,13.64
2023-05-10T20:15:59.440Z,13.58
2023-05-10T20:18:27.305Z,13.53
2023-05-10T20:20:56.095Z,13.49
2023-05-10T20:23:23.842Z,13.44
2023-05-10T20:25:51.716Z,13.39
2023-05-10T20:28:28.240Z,13.34
2023-05-10T20:30:56.291Z,13.31
2023-05-10T20:33:26.352Z,13.27
2023-05-10T20:35:56.698Z,13.23
2023-05-10T20:38:25.179Z,13.19
2023-05-10T20:40:59.649Z,13.15
2023-05-10T20:43:29.041Z,13.10
2023-05-10T20:46:05.552Z,13.06
2023-05-10T20:48:36.087Z,13.03
2023-05-10T20:51:04.346Z,12.99
2023-05-10T20:53:33.643Z,12.95
2023-05-10T20:56:03.046Z,12.90
2023-05-10T20:58:38.969Z,12.87
2023-05-10T21:01:06.869Z,12.84
2023-05-10T21:03:44.379Z,12.80
2023-05-10T21:06:14.052Z,12.75
2023-05-10T21:08:41.656Z,12.71
2023-05-10T21:11:09.287Z,12.67
2023-05-10T21:13:36.913Z,12.64
2023-05-10T21:16:05.223Z,12.60
2023-05-10T21:18:32.969Z,12.57
2023-05-10T21:21:00.844Z,12.54
2023-05-10T21:23:28.457Z,12.51
2023-05-10T21:25:56.188Z,12.46
2023-05-10T21:28:24.350Z,12.42
2023-05-10T21:30:51.941Z,12.39
2023-05-10T21:33:19.578Z,12.36
2023-05-10T21:35:47.256Z,12.34
2023-05-10T21:38:15.612Z,12.30
2023-05-10T21:40:43.179Z,12.27
2023-05-10T21:43:11.500Z,12.22
2023-05-10T21:45:39.673Z,12.19
2023-05-10T21:48:09.333Z,12.14
2023-05-10T21:50:37.088Z,12.11
2023-05-10T21:53:05.234Z,12.06
2023-05-10T21:55:34.464Z,12.01
2023-05-10T21:58:01.973Z,11.97
2023-05-10T22:00:30.035Z,11.94
2023-05-10T22:03:00.935Z,11.90
2023-05-10T22:05:28.638Z,11.86
2023-05-10T22:07:56.262Z,11.82
2023-05-10T22:10:23.872Z,11.79
2023-05-10T22:12:51.800Z,11.76
2023-05-10T22:15:19.482Z,11.72
2023-05-10T22:17:47.987Z,11.69
2023-05-10T22:20:15.794Z,11.65
2023-05-10T22:22:44.468Z,11.62
2023-05-10T22:25:12.019Z,11.59
2023-05-10T22:27:39.803Z,11.56
2023-05-10T22:30:08.132Z,11.54
2023-05-10T22:32:35.803Z,11.50
2023-05-10T22:35:04.219Z,11.46
2023-05-10T22:37:32.216Z,11.43
2023-05-10T22:39:59.706Z,11.38
2023-05-10T22:42:27.360Z,11.35
2023-05-10T22:44:54.976Z,11.32
2023-05-10T22:47:22.522Z,11.30
2023-05-10T22:49:50.147Z,11.28
2023-05-10T22:52:17.709Z,11.27
2023-05-10T22:54:45.300Z,11.27
2023-05-10T22:57:13.102Z,11.26
2023-05-10T22:59:40.729Z,11.24
2023-05-10T23:02:09.646Z,11.22
2023-05-10T23:04:37.495Z,11.19
2023-05-10T23:07:05.297Z,11.19
2023-05-10T23:09:33.071Z,11.18
2023-05-10T23:12:00.597Z,11.15
2023-05-10T23:14:28.198Z,11.13
2023-05-10T23:16:55.976Z,11.10
2023-05-10T23:19:24.727Z,11.08
2023-05-10T23:21:52.287Z,11.05
2023-05-10T23:24:19.904Z,11.03
2023-05-10T23:26:47.472Z,11.01
2023-05-10T23:29:16.375Z,10.98
2023-05-10T23:31:46.276Z,10.95
2023-05-10T23:34:13.850Z,10.93
2023-05-10T23:36:41.407Z,10.92
2023-05-10T23:39:08.938Z,10.90
2023-05-10T23:41:38.093Z,10.88
2023-05-10T23:44:08.016Z,10.87
2023-05-10T23:46:35.567Z,10.85
2023-05-10T23:49:03.244Z,10.84
2023-05-10T23:51:30.857Z,10.84
2023-05-10T23:54:00.246Z,10.83
2023-05-10T23:56:27.974Z,10.82
2023-05-10T23:58:55.731Z,10.80
